Ji'An, China
Current Conditions -  °F | °C
As of 5:00 AM on Sunday 23 Nov 2014 (Local Time) from ZGHA Reporting Station
Haze Haze  
Wind Chill: 59°   Ceiling: Unl
Heat Index: 59°   Visibility: 1mi
Dew Point: 54°   Wind: 7mph
Humidity: 82%   Direction: 320°NW
Pressure: 30.03"   Gusts: NA
Location:  27.12°N, 114.97°E
Report Text: ZGHA 222100Z 32003MPS 1600 BR NSC 15/12 Q1017 NOSIG
Loading
Personal Weather Stations






























Interactive Weather Map New forecast layout! Learn more

10-Day Weather Forecast

Advertisements
Track Severe Weather on mobile